sensor_id;sensor_type;location;lat;lon;timestamp;P1;durP1;ratioP1;P2;durP2;ratioP2
35919;SDS011;36160;53.370;-6.196;2023-02-25T00:00:44;44.53;;;9.43;;
35919;SDS011;36160;53.370;-6.196;2023-02-25T00:03:10;44.08;;;8.85;;
35919;SDS011;36160;53.370;-6.196;2023-02-25T00:05:39;35.25;;;9.02;;
35919;SDS011;36160;53.370;-6.196;2023-02-25T00:08:05;36.70;;;5.53;;
35919;SDS011;36160;53.370;-6.196;2023-02-25T00:10:32;41.40;;;8.48;;
35919;SDS011;36160;53.370;-6.196;2023-02-25T00:12:58;39.45;;;6.68;;
35919;SDS011;36160;53.370;-6.196;2023-02-25T00:15:24;24.40;;;6.70;;
35919;SDS011;36160;53.370;-6.196;2023-02-25T00:17:50;46.20;;;8.13;;
35919;SDS011;36160;53.370;-6.196;2023-02-25T00:20:17;40.60;;;9.05;;
35919;SDS011;36160;53.370;-6.196;2023-02-25T00:22:47;32.47;;;7.88;;
35919;SDS011;36160;53.370;-6.196;2023-02-25T00:25:13;39.70;;;7.75;;
35919;SDS011;36160;53.370;-6.196;2023-02-25T00:27:41;32.20;;;9.75;;
35919;SDS011;36160;53.370;-6.196;2023-02-25T00:30:07;42.78;;;9.73;;
35919;SDS011;36160;53.370;-6.196;2023-02-25T00:32:35;41.70;;;8.27;;
35919;SDS011;36160;53.370;-6.196;2023-02-25T00:35:01;42.67;;;9.70;;
35919;SDS011;36160;53.370;-6.196;2023-02-25T00:37:27;35.55;;;8.85;;
35919;SDS011;36160;53.370;-6.196;2023-02-25T00:39:53;39.65;;;8.77;;
35919;SDS011;36160;53.370;-6.196;2023-02-25T00:42:19;30.08;;;7.40;;
35919;SDS011;36160;53.370;-6.196;2023-02-25T00:44:47;39.72;;;7.38;;
35919;SDS011;36160;53.370;-6.196;2023-02-25T00:47:15;34.67;;;7.03;;
35919;SDS011;36160;53.370;-6.196;2023-02-25T00:49:44;33.88;;;8.02;;
35919;SDS011;36160;53.370;-6.196;2023-02-25T00:52:13;28.50;;;5.23;;
35919;SDS011;36160;53.370;-6.196;2023-02-25T00:54:40;29.77;;;6.88;;
35919;SDS011;36160;53.370;-6.196;2023-02-25T00:57:06;33.78;;;7.57;;
35919;SDS011;36160;53.370;-6.196;2023-02-25T00:59:31;34.17;;;8.57;;
35919;SDS011;36160;53.370;-6.196;2023-02-25T01:01:57;25.08;;;6.07;;
35919;SDS011;36160;53.370;-6.196;2023-02-25T01:04:23;34.65;;;5.55;;
35919;SDS011;36160;53.370;-6.196;2023-02-25T01:06:49;28.92;;;5.93;;
35919;SDS011;36160;53.370;-6.196;2023-02-25T01:09:15;40.55;;;7.10;;
35919;SDS011;36160;53.370;-6.196;2023-02-25T01:11:42;30.75;;;5.65;;
35919;SDS011;36160;53.370;-6.196;2023-02-25T01:14:10;30.30;;;6.20;;
35919;SDS011;36160;53.370;-6.196;2023-02-25T01:16:38;27.85;;;5.72;;
35919;SDS011;36160;53.370;-6.196;2023-02-25T01:19:05;35.75;;;7.35;;
35919;SDS011;36160;53.370;-6.196;2023-02-25T01:21:35;26.15;;;5.10;;
35919;SDS011;36160;53.370;-6.196;2023-02-25T01:24:11;39.10;;;7.78;;
35919;SDS011;36160;53.370;-6.196;2023-02-25T01:26:39;32.58;;;5.45;;
35919;SDS011;36160;53.370;-6.196;2023-02-25T01:29:08;32.17;;;5.85;;
35919;SDS011;36160;53.370;-6.196;2023-02-25T01:31:39;35.28;;;7.40;;
35919;SDS011;36160;53.370;-6.196;2023-02-25T01:34:05;36.67;;;7.30;;
35919;SDS011;36160;53.370;-6.196;2023-02-25T01:36:34;35.05;;;5.03;;
35919;SDS011;36160;53.370;-6.196;2023-02-25T01:39:00;20.85;;;6.55;;
35919;SDS011;36160;53.370;-6.196;2023-02-25T01:41:28;37.67;;;6.38;;
35919;SDS011;36160;53.370;-6.196;2023-02-25T01:44:11;46.95;;;7.35;;
35919;SDS011;36160;53.370;-6.196;2023-02-25T01:46:40;37.47;;;7.32;;
35919;SDS011;36160;53.370;-6.196;2023-02-25T01:49:15;37.75;;;5.57;;
35919;SDS011;36160;53.370;-6.196;2023-02-25T01:51:45;33.45;;;6.13;;
35919;SDS011;36160;53.370;-6.196;2023-02-25T01:54:14;39.10;;;6.22;;
35919;SDS011;36160;53.370;-6.196;2023-02-25T01:56:41;40.05;;;7.47;;
35919;SDS011;36160;53.370;-6.196;2023-02-25T01:59:12;28.35;;;7.85;;
35919;SDS011;36160;53.370;-6.196;2023-02-25T02:01:38;35.50;;;6.60;;
35919;SDS011;36160;53.370;-6.196;2023-02-25T02:04:05;32.15;;;7.72;;
35919;SDS011;36160;53.370;-6.196;2023-02-25T02:06:39;29.70;;;6.68;;
35919;SDS011;36160;53.370;-6.196;2023-02-25T02:09:08;20.83;;;6.45;;
35919;SDS011;36160;53.370;-6.196;2023-02-25T02:11:37;22.42;;;6.03;;
35919;SDS011;36160;53.370;-6.196;2023-02-25T02:14:03;33.30;;;8.27;;
35919;SDS011;36160;53.370;-6.196;2023-02-25T02:21:44;27.13;;;5.90;;
35919;SDS011;36160;53.370;-6.196;2023-02-25T02:24:42;37.47;;;7.10;;
35919;SDS011;36160;53.370;-6.196;2023-02-25T02:30:37;30.23;;;5.63;;
35919;SDS011;36160;53.370;-6.196;2023-02-25T02:33:24;37.60;;;7.30;;
35919;SDS011;36160;53.370;-6.196;2023-02-25T02:36:07;33.67;;;8.48;;
35919;SDS011;36160;53.370;-6.196;2023-02-25T02:41:32;26.38;;;6.10;;
35919;SDS011;36160;53.370;-6.196;2023-02-25T02:44:03;31.85;;;5.18;;
35919;SDS011;36160;53.370;-6.196;2023-02-25T02:46:38;30.65;;;6.75;;
35919;SDS011;36160;53.370;-6.196;2023-02-25T02:49:39;32.42;;;5.32;;
35919;SDS011;36160;53.370;-6.196;2023-02-25T02:52:13;28.08;;;5.22;;
35919;SDS011;36160;53.370;-6.196;2023-02-25T02:54:43;20.67;;;5.75;;
35919;SDS011;36160;53.370;-6.196;2023-02-25T02:57:15;21.35;;;4.68;;
35919;SDS011;36160;53.370;-6.196;2023-02-25T02:59:49;32.17;;;5.45;;
35919;SDS011;36160;53.370;-6.196;2023-02-25T03:02:22;28.98;;;5.15;;
35919;SDS011;36160;53.370;-6.196;2023-02-25T03:04:54;26.40;;;4.70;;
35919;SDS011;36160;53.370;-6.196;2023-02-25T03:07:23;25.83;;;5.93;;
35919;SDS011;36160;53.370;-6.196;2023-02-25T03:09:50;24.48;;;5.32;;
35919;SDS011;36160;53.370;-6.196;2023-02-25T03:12:21;29.27;;;6.43;;
35919;SDS011;36160;53.370;-6.196;2023-02-25T03:14:47;31.98;;;5.20;;
35919;SDS011;36160;53.370;-6.196;2023-02-25T03:22:11;25.35;;;5.90;;
35919;SDS011;36160;53.370;-6.196;2023-02-25T03:24:42;20.42;;;5.72;;
35919;SDS011;36160;53.370;-6.196;2023-02-25T03:29:49;24.25;;;6.03;;
35919;SDS011;36160;53.370;-6.196;2023-02-25T03:32:15;19.10;;;5.13;;
35919;SDS011;36160;53.370;-6.196;2023-02-25T03:34:46;31.13;;;6.35;;
35919;SDS011;36160;53.370;-6.196;2023-02-25T03:37:17;22.27;;;4.30;;
35919;SDS011;36160;53.370;-6.196;2023-02-25T03:39:49;26.90;;;5.30;;
35919;SDS011;36160;53.370;-6.196;2023-02-25T03:42:20;27.73;;;4.68;;
35919;SDS011;36160;53.370;-6.196;2023-02-25T03:44:50;31.73;;;4.65;;
35919;SDS011;36160;53.370;-6.196;2023-02-25T03:47:19;18.88;;;3.75;;
35919;SDS011;36160;53.370;-6.196;2023-02-25T03:49:49;19.55;;;3.47;;
35919;SDS011;36160;53.370;-6.196;2023-02-25T03:52:35;15.40;;;4.18;;
35919;SDS011;36160;53.370;-6.196;2023-02-25T03:55:02;23.55;;;4.13;;
35919;SDS011;36160;53.370;-6.196;2023-02-25T03:57:34;27.20;;;4.97;;
35919;SDS011;36160;53.370;-6.196;2023-02-25T04:00:04;15.10;;;3.08;;
35919;SDS011;36160;53.370;-6.196;2023-02-25T04:02:40;12.20;;;2.88;;
35919;SDS011;36160;53.370;-6.196;2023-02-25T04:05:06;13.57;;;3.33;;
35919;SDS011;36160;53.370;-6.196;2023-02-25T04:07:34;13.82;;;3.63;;
35919;SDS011;36160;53.370;-6.196;2023-02-25T04:09:59;12.68;;;3.28;;
35919;SDS011;36160;53.370;-6.196;2023-02-25T04:12:25;13.77;;;3.38;;
35919;SDS011;36160;53.370;-6.196;2023-02-25T04:14:51;13.00;;;3.35;;
35919;SDS011;36160;53.370;-6.196;2023-02-25T04:17:17;18.75;;;4.35;;
35919;SDS011;36160;53.370;-6.196;2023-02-25T04:19:43;10.93;;;2.63;;
35919;SDS011;36160;53.370;-6.196;2023-02-25T04:22:09;9.43;;;2.10;;
35919;SDS011;36160;53.370;-6.196;2023-02-25T04:24:34;19.73;;;3.40;;
35919;SDS011;36160;53.370;-6.196;2023-02-25T04:27:00;9.25;;;1.98;;
35919;SDS011;36160;53.370;-6.196;2023-02-25T04:29:27;10.13;;;1.40;;
35919;SDS011;36160;53.370;-6.196;2023-02-25T04:31:52;7.15;;;1.90;;
35919;SDS011;36160;53.370;-6.196;2023-02-25T04:34:18;11.23;;;1.45;;
35919;SDS011;36160;53.370;-6.196;2023-02-25T04:36:44;7.38;;;1.27;;
35919;SDS011;36160;53.370;-6.196;2023-02-25T04:39:11;8.48;;;1.15;;
35919;SDS011;36160;53.370;-6.196;2023-02-25T04:41:38;8.80;;;1.70;;
35919;SDS011;36160;53.370;-6.196;2023-02-25T04:44:04;5.72;;;2.22;;
35919;SDS011;36160;53.370;-6.196;2023-02-25T04:46:32;9.10;;;1.40;;
35919;SDS011;36160;53.370;-6.196;2023-02-25T04:48:59;7.72;;;1.50;;
35919;SDS011;36160;53.370;-6.196;2023-02-25T04:51:25;9.10;;;2.17;;
35919;SDS011;36160;53.370;-6.196;2023-02-25T04:53:51;7.32;;;1.10;;
35919;SDS011;36160;53.370;-6.196;2023-02-25T04:56:17;7.05;;;1.85;;
35919;SDS011;36160;53.370;-6.196;2023-02-25T04:58:43;8.23;;;2.55;;
35919;SDS011;36160;53.370;-6.196;2023-02-25T05:01:09;5.78;;;1.17;;
35919;SDS011;36160;53.370;-6.196;2023-02-25T05:03:36;5.35;;;1.20;;
35919;SDS011;36160;53.370;-6.196;2023-02-25T05:06:03;6.05;;;0.98;;
35919;SDS011;36160;53.370;-6.196;2023-02-25T05:08:29;9.88;;;1.33;;
35919;SDS011;36160;53.370;-6.196;2023-02-25T05:10:56;3.70;;;1.10;;
35919;SDS011;36160;53.370;-6.196;2023-02-25T05:13:21;9.23;;;1.00;;
35919;SDS011;36160;53.370;-6.196;2023-02-25T05:15:47;5.80;;;1.10;;
35919;SDS011;36160;53.370;-6.196;2023-02-25T05:18:14;9.40;;;1.40;;
35919;SDS011;36160;53.370;-6.196;2023-02-25T05:20:40;10.02;;;1.40;;
35919;SDS011;36160;53.370;-6.196;2023-02-25T05:23:10;9.73;;;1.37;;
35919;SDS011;36160;53.370;-6.196;2023-02-25T05:25:36;6.82;;;2.00;;
35919;SDS011;36160;53.370;-6.196;2023-02-25T05:28:09;4.70;;;1.23;;
35919;SDS011;36160;53.370;-6.196;2023-02-25T05:30:35;4.00;;;1.00;;
35919;SDS011;36160;53.370;-6.196;2023-02-25T05:33:02;9.95;;;1.00;;
35919;SDS011;36160;53.370;-6.196;2023-02-25T05:35:29;8.63;;;1.20;;
35919;SDS011;36160;53.370;-6.196;2023-02-25T05:37:56;7.40;;;1.08;;
35919;SDS011;36160;53.370;-6.196;2023-02-25T05:40:22;12.75;;;1.92;;
35919;SDS011;36160;53.370;-6.196;2023-02-25T05:42:48;10.02;;;1.13;;
35919;SDS011;36160;53.370;-6.196;2023-02-25T05:45:14;10.52;;;2.08;;
35919;SDS011;36160;53.370;-6.196;2023-02-25T05:47:40;15.48;;;1.63;;
35919;SDS011;36160;53.370;-6.196;2023-02-25T05:50:06;5.35;;;1.20;;
35919;SDS011;36160;53.370;-6.196;2023-02-25T05:52:32;5.75;;;1.40;;
35919;SDS011;36160;53.370;-6.196;2023-02-25T05:54:57;1.73;;;1.08;;
35919;SDS011;36160;53.370;-6.196;2023-02-25T05:57:23;3.72;;;1.30;;
35919;SDS011;36160;53.370;-6.196;2023-02-25T05:59:49;4.25;;;0.85;;
35919;SDS011;36160;53.370;-6.196;2023-02-25T06:02:15;4.38;;;0.90;;
35919;SDS011;36160;53.370;-6.196;2023-02-25T06:04:41;6.25;;;1.20;;
35919;SDS011;36160;53.370;-6.196;2023-02-25T06:07:07;8.88;;;1.20;;
35919;SDS011;36160;53.370;-6.196;2023-02-25T06:09:32;4.38;;;1.35;;
35919;SDS011;36160;53.370;-6.196;2023-02-25T06:12:01;8.50;;;1.40;;
35919;SDS011;36160;53.370;-6.196;2023-02-25T06:14:27;12.38;;;3.17;;
35919;SDS011;36160;53.370;-6.196;2023-02-25T06:16:52;6.13;;;1.08;;
35919;SDS011;36160;53.370;-6.196;2023-02-25T06:19:24;11.45;;;1.48;;
35919;SDS011;36160;53.370;-6.196;2023-02-25T06:21:51;4.72;;;0.80;;
35919;SDS011;36160;53.370;-6.196;2023-02-25T06:24:19;6.93;;;1.15;;
35919;SDS011;36160;53.370;-6.196;2023-02-25T06:26:45;6.63;;;1.35;;
35919;SDS011;36160;53.370;-6.196;2023-02-25T06:29:11;3.22;;;0.88;;
35919;SDS011;36160;53.370;-6.196;2023-02-25T06:31:37;7.95;;;1.38;;
35919;SDS011;36160;53.370;-6.196;2023-02-25T06:34:03;1.55;;;1.10;;
35919;SDS011;36160;53.370;-6.196;2023-02-25T06:36:29;5.43;;;1.13;;
35919;SDS011;36160;53.370;-6.196;2023-02-25T06:38:55;2.63;;;0.80;;
35919;SDS011;36160;53.370;-6.196;2023-02-25T06:41:21;1.77;;;1.25;;
35919;SDS011;36160;53.370;-6.196;2023-02-25T06:43:47;17.27;;;2.92;;
35919;SDS011;36160;53.370;-6.196;2023-02-25T06:46:16;6.55;;;1.85;;
35919;SDS011;36160;53.370;-6.196;2023-02-25T06:48:44;5.65;;;1.08;;
35919;SDS011;36160;53.370;-6.196;2023-02-25T06:51:09;3.22;;;1.00;;
35919;SDS011;36160;53.370;-6.196;2023-02-25T06:53:37;6.95;;;0.95;;
35919;SDS011;36160;53.370;-6.196;2023-02-25T06:56:04;5.82;;;0.98;;
35919;SDS011;36160;53.370;-6.196;2023-02-25T06:58:32;10.10;;;1.55;;
35919;SDS011;36160;53.370;-6.196;2023-02-25T07:00:58;5.30;;;2.17;;
35919;SDS011;36160;53.370;-6.196;2023-02-25T07:03:24;4.85;;;0.90;;
35919;SDS011;36160;53.370;-6.196;2023-02-25T07:05:50;8.18;;;1.77;;
35919;SDS011;36160;53.370;-6.196;2023-02-25T07:08:15;2.85;;;1.00;;
35919;SDS011;36160;53.370;-6.196;2023-02-25T07:10:41;3.17;;;1.08;;
35919;SDS011;36160;53.370;-6.196;2023-02-25T07:13:07;5.50;;;1.10;;
35919;SDS011;36160;53.370;-6.196;2023-02-25T07:15:33;10.35;;;1.40;;
35919;SDS011;36160;53.370;-6.196;2023-02-25T07:17:59;4.85;;;1.20;;
35919;SDS011;36160;53.370;-6.196;2023-02-25T07:20:25;9.20;;;1.77;;
35919;SDS011;36160;53.370;-6.196;2023-02-25T07:22:51;1.67;;;0.90;;
35919;SDS011;36160;53.370;-6.196;2023-02-25T07:25:17;5.78;;;0.95;;
35919;SDS011;36160;53.370;-6.196;2023-02-25T07:27:43;6.95;;;1.52;;
35919;SDS011;36160;53.370;-6.196;2023-02-25T07:30:09;2.35;;;0.88;;
35919;SDS011;36160;53.370;-6.196;2023-02-25T07:32:37;11.20;;;3.33;;
35919;SDS011;36160;53.370;-6.196;2023-02-25T07:35:04;4.07;;;0.90;;
35919;SDS011;36160;53.370;-6.196;2023-02-25T07:37:30;4.75;;;1.00;;
35919;SDS011;36160;53.370;-6.196;2023-02-25T07:39:56;4.43;;;1.10;;
35919;SDS011;36160;53.370;-6.196;2023-02-25T07:42:27;2.33;;;0.80;;
35919;SDS011;36160;53.370;-6.196;2023-02-25T07:44:53;6.03;;;0.77;;
35919;SDS011;36160;53.370;-6.196;2023-02-25T07:47:20;6.07;;;1.10;;
35919;SDS011;36160;53.370;-6.196;2023-02-25T12:41:01;4.15;;;1.38;;
35919;SDS011;36160;53.370;-6.196;2023-02-25T12:43:52;9.70;;;2.00;;
35919;SDS011;36160;53.370;-6.196;2023-02-25T12:49:38;6.53;;;1.20;;
35919;SDS011;36160;53.370;-6.196;2023-02-25T12:55:21;6.53;;;1.88;;
35919;SDS011;36160;53.370;-6.196;2023-02-25T13:06:11;7.97;;;2.05;;
35919;SDS011;36160;53.370;-6.196;2023-02-25T13:11:35;7.40;;;2.22;;
35919;SDS011;36160;53.370;-6.196;2023-02-25T13:23:07;4.57;;;1.20;;
35919;SDS011;36160;53.370;-6.196;2023-02-25T13:28:22;8.48;;;1.73;;
35919;SDS011;36160;53.370;-6.196;2023-02-25T13:31:06;10.20;;;2.15;;
35919;SDS011;36160;53.370;-6.196;2023-02-25T13:53:25;6.28;;;1.73;;
35919;SDS011;36160;53.370;-6.196;2023-02-25T13:56:20;12.38;;;1.95;;
35919;SDS011;36160;53.370;-6.196;2023-02-25T14:20:48;10.35;;;2.20;;
35919;SDS011;36160;53.370;-6.196;2023-02-25T14:34:39;5.90;;;1.70;;
35919;SDS011;36160;53.370;-6.196;2023-02-25T14:39:22;6.65;;;1.45;;
35919;SDS011;36160;53.370;-6.196;2023-02-25T14:42:15;5.93;;;1.88;;
35919;SDS011;36160;53.370;-6.196;2023-02-25T14:45:19;8.65;;;2.22;;
35919;SDS011;36160;53.370;-6.196;2023-02-25T14:47:55;8.10;;;1.98;;
35919;SDS011;36160;53.370;-6.196;2023-02-25T15:15:33;8.02;;;1.95;;
35919;SDS011;36160;53.370;-6.196;2023-02-25T15:21:21;5.88;;;1.98;;
35919;SDS011;36160;53.370;-6.196;2023-02-25T15:23:55;9.95;;;2.83;;
35919;SDS011;36160;53.370;-6.196;2023-02-25T15:26:41;9.77;;;2.50;;
35919;SDS011;36160;53.370;-6.196;2023-02-25T15:37:32;9.27;;;3.05;;
35919;SDS011;36160;53.370;-6.196;2023-02-25T15:43:41;10.07;;;3.50;;
35919;SDS011;36160;53.370;-6.196;2023-02-25T15:45:44;22.33;;;3.92;;
35919;SDS011;36160;53.370;-6.196;2023-02-25T15:55:46;6.97;;;1.98;;
35919;SDS011;36160;53.370;-6.196;2023-02-25T16:03:24;9.18;;;2.28;;
35919;SDS011;36160;53.370;-6.196;2023-02-25T16:06:00;8.90;;;2.60;;
35919;SDS011;36160;53.370;-6.196;2023-02-25T16:11:45;4.65;;;2.30;;
35919;SDS011;36160;53.370;-6.196;2023-02-25T16:14:27;8.95;;;1.90;;
35919;SDS011;36160;53.370;-6.196;2023-02-25T16:19:40;7.95;;;2.08;;
35919;SDS011;36160;53.370;-6.196;2023-02-25T16:24:54;6.82;;;1.58;;
35919;SDS011;36160;53.370;-6.196;2023-02-25T16:32:27;12.45;;;1.77;;
35919;SDS011;36160;53.370;-6.196;2023-02-25T16:35:12;11.05;;;1.70;;
35919;SDS011;36160;53.370;-6.196;2023-02-25T16:40:11;8.68;;;3.05;;
35919;SDS011;36160;53.370;-6.196;2023-02-25T16:42:40;6.38;;;2.15;;
35919;SDS011;36160;53.370;-6.196;2023-02-25T16:45:06;16.85;;;1.83;;
35919;SDS011;36160;53.370;-6.196;2023-02-25T16:47:33;7.40;;;2.22;;
35919;SDS011;36160;53.370;-6.196;2023-02-25T16:50:03;8.27;;;1.70;;
35919;SDS011;36160;53.370;-6.196;2023-02-25T16:52:37;9.70;;;3.15;;
35919;SDS011;36160;53.370;-6.196;2023-02-25T16:55:15;4.88;;;1.80;;
35919;SDS011;36160;53.370;-6.196;2023-02-25T16:58:00;7.40;;;1.58;;
35919;SDS011;36160;53.370;-6.196;2023-02-25T17:00:27;14.23;;;1.65;;
35919;SDS011;36160;53.370;-6.196;2023-02-25T17:02:54;9.20;;;1.70;;
35919;SDS011;36160;53.370;-6.196;2023-02-25T17:05:27;10.07;;;2.85;;
35919;SDS011;36160;53.370;-6.196;2023-02-25T17:07:57;10.82;;;1.70;;
35919;SDS011;36160;53.370;-6.196;2023-02-25T17:10:29;6.10;;;1.50;;
35919;SDS011;36160;53.370;-6.196;2023-02-25T17:13:08;4.38;;;1.60;;
35919;SDS011;36160;53.370;-6.196;2023-02-25T17:15:40;8.70;;;2.53;;
35919;SDS011;36160;53.370;-6.196;2023-02-25T17:20:32;4.97;;;2.00;;
35919;SDS011;36160;53.370;-6.196;2023-02-25T17:22:58;8.40;;;1.67;;
35919;SDS011;36160;53.370;-6.196;2023-02-25T17:25:37;12.55;;;1.88;;
35919;SDS011;36160;53.370;-6.196;2023-02-25T17:28:14;10.15;;;1.92;;
35919;SDS011;36160;53.370;-6.196;2023-02-25T17:30:45;8.93;;;2.13;;
35919;SDS011;36160;53.370;-6.196;2023-02-25T17:33:19;8.98;;;2.80;;
35919;SDS011;36160;53.370;-6.196;2023-02-25T17:35:51;5.78;;;1.60;;
35919;SDS011;36160;53.370;-6.196;2023-02-25T17:38:20;3.30;;;1.48;;
35919;SDS011;36160;53.370;-6.196;2023-02-25T17:40:48;2.60;;;1.30;;
35919;SDS011;36160;53.370;-6.196;2023-02-25T17:43:25;12.13;;;1.83;;
35919;SDS011;36160;53.370;-6.196;2023-02-25T17:45:59;10.85;;;2.97;;
35919;SDS011;36160;53.370;-6.196;2023-02-25T17:48:28;8.20;;;1.75;;
35919;SDS011;36160;53.370;-6.196;2023-02-25T17:53:38;7.50;;;2.88;;
35919;SDS011;36160;53.370;-6.196;2023-02-25T17:56:08;5.68;;;1.88;;
35919;SDS011;36160;53.370;-6.196;2023-02-25T17:58:37;9.13;;;1.40;;
35919;SDS011;36160;53.370;-6.196;2023-02-25T18:01:03;12.20;;;3.20;;
35919;SDS011;36160;53.370;-6.196;2023-02-25T18:03:30;8.88;;;1.30;;
35919;SDS011;36160;53.370;-6.196;2023-02-25T18:06:52;5.82;;;1.42;;
35919;SDS011;36160;53.370;-6.196;2023-02-25T18:09:03;6.13;;;1.67;;
35919;SDS011;36160;53.370;-6.196;2023-02-25T18:11:31;8.43;;;2.35;;
35919;SDS011;36160;53.370;-6.196;2023-02-25T18:14:42;12.32;;;2.33;;
35919;SDS011;36160;53.370;-6.196;2023-02-25T18:17:09;8.43;;;1.92;;
35919;SDS011;36160;53.370;-6.196;2023-02-25T18:20:30;8.02;;;2.08;;
35919;SDS011;36160;53.370;-6.196;2023-02-25T18:26:11;7.28;;;1.77;;
35919;SDS011;36160;53.370;-6.196;2023-02-25T18:28:37;9.15;;;2.65;;
35919;SDS011;36160;53.370;-6.196;2023-02-25T18:31:03;8.13;;;1.60;;
35919;SDS011;36160;53.370;-6.196;2023-02-25T18:33:29;6.75;;;3.10;;
35919;SDS011;36160;53.370;-6.196;2023-02-25T18:35:55;6.43;;;2.00;;
35919;SDS011;36160;53.370;-6.196;2023-02-25T18:38:22;5.72;;;1.90;;
35919;SDS011;36160;53.370;-6.196;2023-02-25T18:40:50;10.05;;;2.50;;
35919;SDS011;36160;53.370;-6.196;2023-02-25T18:43:17;8.25;;;2.15;;
35919;SDS011;36160;53.370;-6.196;2023-02-25T18:45:44;9.88;;;2.00;;
35919;SDS011;36160;53.370;-6.196;2023-02-25T18:48:10;22.27;;;7.55;;
35919;SDS011;36160;53.370;-6.196;2023-02-25T18:50:37;9.27;;;1.92;;
35919;SDS011;36160;53.370;-6.196;2023-02-25T18:55:53;5.50;;;2.15;;
35919;SDS011;36160;53.370;-6.196;2023-02-25T18:58:20;9.25;;;2.20;;
35919;SDS011;36160;53.370;-6.196;2023-02-25T19:00:48;3.42;;;1.40;;
35919;SDS011;36160;53.370;-6.196;2023-02-25T19:03:32;9.32;;;2.58;;
35919;SDS011;36160;53.370;-6.196;2023-02-25T19:06:03;6.72;;;1.70;;
35919;SDS011;36160;53.370;-6.196;2023-02-25T19:08:29;6.55;;;1.73;;
35919;SDS011;36160;53.370;-6.196;2023-02-25T19:10:54;10.57;;;1.67;;
35919;SDS011;36160;53.370;-6.196;2023-02-25T19:13:26;5.75;;;1.75;;
35919;SDS011;36160;53.370;-6.196;2023-02-25T19:15:58;7.43;;;1.65;;
35919;SDS011;36160;53.370;-6.196;2023-02-25T19:18:24;4.97;;;1.73;;
35919;SDS011;36160;53.370;-6.196;2023-02-25T19:20:50;4.22;;;1.25;;
35919;SDS011;36160;53.370;-6.196;2023-02-25T19:23:17;6.30;;;1.88;;
35919;SDS011;36160;53.370;-6.196;2023-02-25T19:25:43;4.68;;;1.90;;
35919;SDS011;36160;53.370;-6.196;2023-02-25T19:28:11;9.30;;;1.60;;
35919;SDS011;36160;53.370;-6.196;2023-02-25T19:30:38;8.40;;;2.13;;
35919;SDS011;36160;53.370;-6.196;2023-02-25T19:33:05;3.15;;;1.60;;
35919;SDS011;36160;53.370;-6.196;2023-02-25T19:35:35;4.72;;;1.92;;
35919;SDS011;36160;53.370;-6.196;2023-02-25T19:38:04;4.10;;;1.25;;
35919;SDS011;36160;53.370;-6.196;2023-02-25T19:40:32;4.97;;;1.40;;
35919;SDS011;36160;53.370;-6.196;2023-02-25T19:42:59;3.50;;;1.85;;
35919;SDS011;36160;53.370;-6.196;2023-02-25T19:45:25;11.77;;;2.17;;
35919;SDS011;36160;53.370;-6.196;2023-02-25T19:47:51;6.22;;;1.58;;
35919;SDS011;36160;53.370;-6.196;2023-02-25T19:50:18;7.63;;;1.58;;
35919;SDS011;36160;53.370;-6.196;2023-02-25T19:52:46;3.55;;;1.70;;
35919;SDS011;36160;53.370;-6.196;2023-02-25T19:55:12;9.88;;;1.90;;
35919;SDS011;36160;53.370;-6.196;2023-02-25T19:57:38;8.70;;;2.17;;
35919;SDS011;36160;53.370;-6.196;2023-02-25T20:00:06;9.35;;;1.50;;
35919;SDS011;36160;53.370;-6.196;2023-02-25T20:02:34;8.75;;;1.88;;
35919;SDS011;36160;53.370;-6.196;2023-02-25T20:05:00;10.02;;;1.52;;
35919;SDS011;36160;53.370;-6.196;2023-02-25T20:07:26;5.80;;;1.70;;
35919;SDS011;36160;53.370;-6.196;2023-02-25T20:09:52;6.32;;;1.40;;
35919;SDS011;36160;53.370;-6.196;2023-02-25T20:12:17;4.13;;;1.23;;
35919;SDS011;36160;53.370;-6.196;2023-02-25T20:14:43;5.20;;;1.20;;
35919;SDS011;36160;53.370;-6.196;2023-02-25T20:17:09;11.52;;;2.67;;
35919;SDS011;36160;53.370;-6.196;2023-02-25T20:19:34;7.60;;;2.00;;
35919;SDS011;36160;53.370;-6.196;2023-02-25T20:22:01;2.38;;;1.40;;
35919;SDS011;36160;53.370;-6.196;2023-02-25T20:24:28;8.77;;;1.33;;
35919;SDS011;36160;53.370;-6.196;2023-02-25T20:26:54;6.30;;;1.40;;
35919;SDS011;36160;53.370;-6.196;2023-02-25T20:29:20;4.70;;;1.40;;
35919;SDS011;36160;53.370;-6.196;2023-02-25T20:31:46;8.10;;;1.38;;
35919;SDS011;36160;53.370;-6.196;2023-02-25T20:34:13;6.78;;;1.75;;
35919;SDS011;36160;53.370;-6.196;2023-02-25T20:37:01;4.85;;;1.42;;
35919;SDS011;36160;53.370;-6.196;2023-02-25T20:39:46;6.95;;;1.60;;
35919;SDS011;36160;53.370;-6.196;2023-02-25T20:42:18;6.85;;;1.60;;
35919;SDS011;36160;53.370;-6.196;2023-02-25T20:47:25;10.35;;;3.40;;
35919;SDS011;36160;53.370;-6.196;2023-02-25T20:49:53;8.15;;;2.33;;
35919;SDS011;36160;53.370;-6.196;2023-02-25T20:52:20;4.53;;;1.58;;
35919;SDS011;36160;53.370;-6.196;2023-02-25T20:54:46;5.95;;;1.77;;
35919;SDS011;36160;53.370;-6.196;2023-02-25T20:57:14;7.45;;;1.40;;
35919;SDS011;36160;53.370;-6.196;2023-02-25T20:59:41;5.85;;;1.67;;
35919;SDS011;36160;53.370;-6.196;2023-02-25T21:02:08;6.28;;;1.73;;
35919;SDS011;36160;53.370;-6.196;2023-02-25T21:04:35;11.82;;;1.80;;
35919;SDS011;36160;53.370;-6.196;2023-02-25T21:07:00;5.10;;;1.60;;
35919;SDS011;36160;53.370;-6.196;2023-02-25T21:09:27;5.70;;;1.33;;
35919;SDS011;36160;53.370;-6.196;2023-02-25T21:11:53;4.13;;;1.30;;
35919;SDS011;36160;53.370;-6.196;2023-02-25T21:14:19;6.35;;;2.33;;
35919;SDS011;36160;53.370;-6.196;2023-02-25T21:16:45;8.90;;;2.00;;
35919;SDS011;36160;53.370;-6.196;2023-02-25T21:19:11;7.38;;;1.80;;
35919;SDS011;36160;53.370;-6.196;2023-02-25T21:21:37;6.05;;;1.73;;
35919;SDS011;36160;53.370;-6.196;2023-02-25T21:24:03;17.45;;;3.38;;
35919;SDS011;36160;53.370;-6.196;2023-02-25T21:26:30;10.38;;;2.25;;
35919;SDS011;36160;53.370;-6.196;2023-02-25T21:28:56;11.15;;;1.95;;
35919;SDS011;36160;53.370;-6.196;2023-02-25T21:31:23;8.93;;;1.88;;
35919;SDS011;36160;53.370;-6.196;2023-02-25T21:33:49;5.53;;;1.58;;
35919;SDS011;36160;53.370;-6.196;2023-02-25T21:36:15;14.10;;;2.67;;
35919;SDS011;36160;53.370;-6.196;2023-02-25T21:38:40;6.85;;;1.38;;
35919;SDS011;36160;53.370;-6.196;2023-02-25T21:41:07;8.95;;;1.73;;
35919;SDS011;36160;53.370;-6.196;2023-02-25T21:43:36;12.95;;;2.92;;
35919;SDS011;36160;53.370;-6.196;2023-02-25T21:46:03;6.65;;;1.98;;
35919;SDS011;36160;53.370;-6.196;2023-02-25T21:48:30;6.95;;;2.55;;
35919;SDS011;36160;53.370;-6.196;2023-02-25T21:50:57;5.93;;;1.30;;
35919;SDS011;36160;53.370;-6.196;2023-02-25T21:53:23;11.30;;;1.77;;
35919;SDS011;36160;53.370;-6.196;2023-02-25T21:55:52;7.50;;;1.20;;
35919;SDS011;36160;53.370;-6.196;2023-02-25T21:58:19;5.00;;;1.27;;
35919;SDS011;36160;53.370;-6.196;2023-02-25T22:00:45;11.45;;;1.98;;
35919;SDS011;36160;53.370;-6.196;2023-02-25T22:03:11;6.65;;;1.70;;
35919;SDS011;36160;53.370;-6.196;2023-02-25T22:05:37;7.65;;;1.58;;
35919;SDS011;36160;53.370;-6.196;2023-02-25T22:08:07;9.77;;;1.80;;
35919;SDS011;36160;53.370;-6.196;2023-02-25T22:10:33;3.10;;;1.67;;
35919;SDS011;36160;53.370;-6.196;2023-02-25T22:12:59;7.30;;;3.50;;
35919;SDS011;36160;53.370;-6.196;2023-02-25T22:15:25;10.20;;;1.50;;
35919;SDS011;36160;53.370;-6.196;2023-02-25T22:17:51;8.55;;;1.40;;
35919;SDS011;36160;53.370;-6.196;2023-02-25T22:20:17;6.85;;;1.33;;
35919;SDS011;36160;53.370;-6.196;2023-02-25T22:22:43;5.32;;;1.73;;
35919;SDS011;36160;53.370;-6.196;2023-02-25T22:25:09;8.07;;;1.70;;
35919;SDS011;36160;53.370;-6.196;2023-02-25T22:27:34;6.35;;;1.63;;
35919;SDS011;36160;53.370;-6.196;2023-02-25T22:30:00;8.75;;;1.73;;
35919;SDS011;36160;53.370;-6.196;2023-02-25T22:32:26;9.13;;;1.60;;
35919;SDS011;36160;53.370;-6.196;2023-02-25T22:34:51;11.18;;;1.95;;
35919;SDS011;36160;53.370;-6.196;2023-02-25T22:37:17;9.75;;;1.80;;